PWSweather.com
Personal Weather Stations
Station Observations
WEERALK
AlkmaarNL 1827 PE

AlkmaarNL 1827 PE

Lat: 52.6712679, Lon: 4.7682444

Elevation: 7

Station Type: Davis Vantage Pro2

Latest ConditionsUpdated 5:00:05 AM GMT+01:01 Friday, Nov 28, 2014
Currently Today's Max Today's Min Today's Average
Temperature 43.3°F6.3°C 43.3°F6.3°C 43.0°F6.1°C 43.2°F6.2°C
Dew Point 42.3°F5.7°C 42.3°F5.7°C 42.1°F5.6°C 42.2°F5.7°C
Winds 6.0 mph ESE9.7 kmh ESE 8.0 mph ESE12.9 kmh ESE - 6.1 mph 9.8 kmh
Wind Gusts 13.0 mph20.9 kmh 15.0 mph24.1 kmh - -
Humidity 96% 97% 96% 96%
Pressure 29.73 in1006.8 mb 29.74 in1007.1 mb 29.72 in1006.4 mb -
Precipitation - 0.01 in0.3 mm - -
Hour Temp Dew Point Humidity Winds Wind Gusts Pressure Precip Precip Rate Daily Precip Total
05:00 AM 43.3°F6.3°C 42.3°F5.7°C 96% 6.0 mph ESE9.7 kmh ESE 13.0 mph20.9 kmh 29.73 in1006.8 mb 0.00 in0.0 mm 0.00 in/hr0.0 mm/hr 0.01 in0.3 mm
04:59 AM 43.3°F6.3°C 42.3°F5.7°C 96% 6.0 mph ESE9.7 kmh ESE 13.0 mph20.9 kmh 29.73 in1006.8 mb 0.00 in0.0 mm 0.00 in/hr0.0 mm/hr 0.01 in0.3 mm
04:58 AM 43.3°F6.3°C 42.3°F5.7°C 96% 6.0 mph ESE9.7 kmh ESE 13.0 mph20.9 kmh 29.73 in1006.8 mb 0.00 in0.0 mm 0.00 in/hr0.0 mm/hr 0.01 in0.3 mm
04:57 AM 43.3°F6.3°C 42.3°F5.7°C 96% 6.0 mph ESE9.7 kmh ESE 13.0 mph20.9 kmh 29.73 in1006.8 mb 0.00 in0.0 mm 0.00 in/hr0.0 mm/hr 0.01 in0.3 mm
04:56 AM 43.3°F6.3°C 42.3°F5.7°C 96% 6.0 mph ESE9.7 kmh ESE 11.0 mph17.7 kmh 29.73 in1006.8 mb 0.00 in0.0 mm 0.00 in/hr0.0 mm/hr 0.01 in0.3 mm
04:55 AM 43.3°F6.3°C 42.3°F5.7°C 96% 6.0 mph ESE9.7 kmh ESE 11.0 mph17.7 kmh 29.73 in1006.8 mb 0.00 in0.0 mm 0.00 in/hr0.0 mm/hr 0.01 in0.3 mm
04:54 AM 43.3°F6.3°C 42.3°F5.7°C 96% 7.0 mph ESE11.3 kmh ESE 11.0 mph17.7 kmh 29.73 in1006.8 mb 0.00 in0.0 mm 0.00 in/hr0.0 mm/hr 0.01 in0.3 mm
04:53 AM 43.3°F6.3°C 42.3°F5.7°C 96% 7.0 mph ESE11.3 kmh ESE 14.0 mph22.5 kmh 29.73 in1006.8 mb 0.00 in0.0 mm 0.00 in/hr0.0 mm/hr 0.01 in0.3 mm
04:52 AM 43.3°F6.3°C 42.3°F5.7°C 96% 7.0 mph ESE11.3 kmh ESE 14.0 mph22.5 kmh 29.73 in1006.8 mb 0.00 in0.0 mm 0.00 in/hr0.0 mm/hr 0.01 in0.3 mm
04:51 AM 43.3°F6.3°C 42.3°F5.7°C 96% 7.0 mph ESE11.3 kmh ESE 14.0 mph22.5 kmh 29.73 in1006.8 mb 0.00 in0.0 mm 0.00 in/hr0.0 mm/hr 0.01 in0.3 mm
04:50 AM 43.3°F6.3°C 42.3°F5.7°C 96% 7.0 mph ESE11.3 kmh ESE 14.0 mph22.5 kmh 29.73 in1006.8 mb 0.00 in0.0 mm 0.00 in/hr0.0 mm/hr 0.01 in0.3 mm
04:49 AM 43.3°F6.3°C 42.3°F5.7°C 96% 7.0 mph ESE11.3 kmh ESE 14.0 mph22.5 kmh 29.73 in1006.8 mb 0.00 in0.0 mm 0.00 in/hr0.0 mm/hr 0.01 in0.3 mm
04:48 AM 43.3°F6.3°C 42.3°F5.7°C 96% 7.0 mph ESE11.3 kmh ESE 14.0 mph22.5 kmh 29.73 in1006.8 mb 0.00 in0.0 mm 0.00 in/hr0.0 mm/hr 0.01 in0.3 mm
04:47 AM 43.3°F6.3°C 42.3°F5.7°C 96% 7.0 mph ESE11.3 kmh ESE 14.0 mph22.5 kmh 29.73 in1006.8 mb 0.00 in0.0 mm 0.00 in/hr0.0 mm/hr 0.01 in0.3 mm
04:46 AM 43.3°F6.3°C 42.3°F5.7°C 96% 7.0 mph ESE11.3 kmh ESE 14.0 mph22.5 kmh 29.73 in1006.8 mb 0.00 in0.0 mm 0.00 in/hr0.0 mm/hr 0.01 in0.3 mm
04:45 AM 43.3°F6.3°C 42.3°F5.7°C 96% 8.0 mph ESE12.9 kmh ESE 14.0 mph22.5 kmh 29.73 in1006.8 mb 0.00 in0.0 mm 0.00 in/hr0.0 mm/hr 0.01 in0.3 mm
04:44 AM 43.3°F6.3°C 42.3°F5.7°C 96% 7.0 mph ESE11.3 kmh ESE 14.0 mph22.5 kmh 29.73 in1006.8 mb 0.00 in0.0 mm 0.00 in/hr0.0 mm/hr 0.01 in0.3 mm
04:43 AM 43.3°F6.3°C 42.3°F5.7°C 96% 7.0 mph ESE11.3 kmh ESE 14.0 mph22.5 kmh 29.73 in1006.8 mb 0.00 in0.0 mm 0.00 in/hr0.0 mm/hr 0.01 in0.3 mm
04:42 AM 43.3°F6.3°C 42.3°F5.7°C 96% 7.0 mph ESE11.3 kmh ESE 14.0 mph22.5 kmh 29.73 in1006.8 mb 0.00 in0.0 mm 0.00 in/hr0.0 mm/hr 0.01 in0.3 mm
04:41 AM 43.3°F6.3°C 42.3°F5.7°C 96% 7.0 mph ESE11.3 kmh ESE 14.0 mph22.5 kmh 29.73 in1006.8 mb 0.00 in0.0 mm 0.00 in/hr0.0 mm/hr 0.01 in0.3 mm
04:40 AM 43.3°F6.3°C 42.3°F5.7°C 96% 7.0 mph ESE11.3 kmh ESE 14.0 mph22.5 kmh 29.73 in1006.8 mb 0.00 in0.0 mm 0.00 in/hr0.0 mm/hr 0.01 in0.3 mm
04:39 AM 43.3°F6.3°C 42.3°F5.7°C 96% 7.0 mph ESE11.3 kmh ESE 14.0 mph22.5 kmh 29.73 in1006.8 mb 0.00 in0.0 mm 0.00 in/hr0.0 mm/hr 0.01 in0.3 mm
04:38 AM 43.3°F6.3°C 42.3°F5.7°C 96% 6.0 mph ESE9.7 kmh ESE 14.0 mph22.5 kmh 29.73 in1006.8 mb 0.00 in0.0 mm 0.00 in/hr0.0 mm/hr 0.01 in0.3 mm
04:37 AM 43.3°F6.3°C 42.3°F5.7°C 96% 6.0 mph ESE9.7 kmh ESE 14.0 mph22.5 kmh 29.73 in1006.8 mb 0.00 in0.0 mm 0.00 in/hr0.0 mm/hr 0.01 in0.3 mm
04:36 AM 43.3°F6.3°C 42.3°F5.7°C 96% 6.0 mph ESE9.7 kmh ESE 14.0 mph22.5 kmh 29.73 in1006.8 mb 0.00 in0.0 mm 0.00 in/hr0.0 mm/hr 0.01 in0.3 mm
04:35 AM 43.3°F6.3°C 42.3°F5.7°C 96% 6.0 mph ESE9.7 kmh ESE 14.0 mph22.5 kmh 29.73 in1006.8 mb 0.00 in0.0 mm 0.00 in/hr0.0 mm/hr 0.01 in0.3 mm
04:34 AM 43.3°F6.3°C 42.3°F5.7°C 96% 6.0 mph ESE9.7 kmh ESE 13.0 mph20.9 kmh 29.73 in1006.8 mb 0.00 in0.0 mm 0.00 in/hr0.0 mm/hr 0.01 in0.3 mm
04:33 AM 43.3°F6.3°C 42.3°F5.7°C 96% 6.0 mph ESE9.7 kmh ESE 13.0 mph20.9 kmh 29.73 in1006.8 mb 0.00 in0.0 mm 0.00 in/hr0.0 mm/hr 0.01 in0.3 mm
04:32 AM 43.2°F6.2°C 42.1°F5.6°C 96% 7.0 mph SE11.3 kmh SE 13.0 mph20.9 kmh 29.73 in1006.8 mb 0.00 in0.0 mm 0.00 in/hr0.0 mm/hr 0.01 in0.3 mm
04:31 AM 43.2°F6.2°C 42.1°F5.6°C 96% 7.0 mph ESE11.3 kmh ESE 15.0 mph24.1 kmh 29.73 in1006.8 mb 0.00 in0.0 mm 0.00 in/hr0.0 mm/hr 0.01 in0.3 mm
04:30 AM 43.2°F6.2°C 42.1°F5.6°C 96% 7.0 mph SE11.3 kmh SE 15.0 mph24.1 kmh 29.73 in1006.8 mb 0.00 in0.0 mm 0.00 in/hr0.0 mm/hr 0.01 in0.3 mm
04:29 AM 43.2°F6.2°C 42.1°F5.6°C 96% 7.0 mph SE11.3 kmh SE 15.0 mph24.1 kmh 29.73 in1006.8 mb 0.00 in0.0 mm 0.00 in/hr0.0 mm/hr 0.01 in0.3 mm
04:28 AM 43.2°F6.2°C 42.1°F5.6°C 96% 7.0 mph SE11.3 kmh SE 15.0 mph24.1 kmh 29.73 in1006.8 mb 0.00 in0.0 mm 0.00 in/hr0.0 mm/hr 0.01 in0.3 mm
04:27 AM 43.2°F6.2°C 42.1°F5.6°C 96% 7.0 mph SE11.3 kmh SE 15.0 mph24.1 kmh 29.73 in1006.8 mb 0.00 in0.0 mm 0.00 in/hr0.0 mm/hr 0.01 in0.3 mm
04:26 AM 43.2°F6.2°C 42.1°F5.6°C 96% 7.0 mph SE11.3 kmh SE 15.0 mph24.1 kmh 29.73 in1006.8 mb 0.00 in0.0 mm 0.00 in/hr0.0 mm/hr 0.01 in0.3 mm
04:25 AM 43.2°F6.2°C 42.1°F5.6°C 96% 7.0 mph SE11.3 kmh SE 15.0 mph24.1 kmh 29.73 in1006.8 mb 0.00 in0.0 mm 0.00 in/hr0.0 mm/hr 0.01 in0.3 mm
04:24 AM 43.2°F6.2°C 42.1°F5.6°C 96% 7.0 mph SE11.3 kmh SE 15.0 mph24.1 kmh 29.73 in1006.8 mb 0.00 in0.0 mm 0.00 in/hr0.0 mm/hr 0.01 in0.3 mm
04:23 AM 43.2°F6.2°C 42.1°F5.6°C 96% 7.0 mph SE11.3 kmh SE 15.0 mph24.1 kmh 29.73 in1006.8 mb 0.00 in0.0 mm 0.00 in/hr0.0 mm/hr 0.01 in0.3 mm
04:22 AM 43.2°F6.2°C 42.1°F5.6°C 96% 6.0 mph SE9.7 kmh SE 15.0 mph24.1 kmh 29.73 in1006.8 mb 0.00 in0.0 mm 0.00 in/hr0.0 mm/hr 0.01 in0.3 mm
04:21 AM 43.2°F6.2°C 42.1°F5.6°C 96% 6.0 mph SE9.7 kmh SE 13.0 mph20.9 kmh 29.73 in1006.8 mb 0.00 in0.0 mm 0.00 in/hr0.0 mm/hr 0.01 in0.3 mm
04:20 AM 43.2°F6.2°C 42.1°F5.6°C 96% 6.0 mph ESE9.7 kmh ESE 13.0 mph20.9 kmh 29.73 in1006.8 mb 0.00 in0.0 mm 0.00 in/hr0.0 mm/hr 0.01 in0.3 mm
04:19 AM 43.2°F6.2°C 42.1°F5.6°C 96% 6.0 mph SE9.7 kmh SE 13.0 mph20.9 kmh 29.73 in1006.8 mb 0.00 in0.0 mm 0.00 in/hr0.0 mm/hr 0.01 in0.3 mm
04:18 AM 43.2°F6.2°C 42.1°F5.6°C 96% 6.0 mph SE9.7 kmh SE 13.0 mph20.9 kmh 29.73 in1006.8 mb 0.00 in0.0 mm 0.00 in/hr0.0 mm/hr 0.01 in0.3 mm
04:17 AM 43.2°F6.2°C 42.1°F5.6°C 96% 6.0 mph SE9.7 kmh SE 13.0 mph20.9 kmh 29.73 in1006.8 mb 0.00 in0.0 mm 0.00 in/hr0.0 mm/hr 0.01 in0.3 mm
04:16 AM 43.2°F6.2°C 42.1°F5.6°C 96% 6.0 mph SE9.7 kmh SE 13.0 mph20.9 kmh 29.73 in1006.8 mb 0.00 in0.0 mm 0.00 in/hr0.0 mm/hr 0.01 in0.3 mm
04:15 AM 43.2°F6.2°C 42.1°F5.6°C 96% 5.0 mph SE8.0 kmh SE 10.0 mph16.1 kmh 29.73 in1006.8 mb 0.00 in0.0 mm 0.00 in/hr0.0 mm/hr 0.01 in0.3 mm
04:14 AM 43.2°F6.2°C 42.1°F5.6°C 96% 5.0 mph SE8.0 kmh SE 10.0 mph16.1 kmh 29.73 in1006.8 mb 0.00 in0.0 mm 0.00 in/hr0.0 mm/hr 0.01 in0.3 mm
04:13 AM 43.2°F6.2°C 42.1°F5.6°C 96% 5.0 mph SE8.0 kmh SE 10.0 mph16.1 kmh 29.73 in1006.8 mb 0.00 in0.0 mm 0.00 in/hr0.0 mm/hr 0.01 in0.3 mm
04:12 AM 43.2°F6.2°C 42.1°F5.6°C 96% 5.0 mph SE8.0 kmh SE 10.0 mph16.1 kmh 29.73 in1006.8 mb 0.00 in0.0 mm 0.00 in/hr0.0 mm/hr 0.01 in0.3 mm
04:11 AM 43.2°F6.2°C 42.1°F5.6°C 96% 5.0 mph SE8.0 kmh SE 11.0 mph17.7 kmh 29.73 in1006.8 mb 0.00 in0.0 mm 0.00 in/hr0.0 mm/hr 0.01 in0.3 mm
04:10 AM 43.2°F6.2°C 42.1°F5.6°C 96% 5.0 mph SE8.0 kmh SE 11.0 mph17.7 kmh 29.73 in1006.8 mb 0.00 in0.0 mm 0.00 in/hr0.0 mm/hr 0.01 in0.3 mm
04:09 AM 43.2°F6.2°C 42.1°F5.6°C 96% 5.0 mph SE8.0 kmh SE 11.0 mph17.7 kmh 29.74 in1007.1 mb 0.00 in0.0 mm 0.00 in/hr0.0 mm/hr 0.01 in0.3 mm
04:08 AM 43.2°F6.2°C 42.1°F5.6°C 96% 4.0 mph SE6.4 kmh SE 11.0 mph17.7 kmh 29.73 in1006.8 mb 0.00 in0.0 mm 0.00 in/hr0.0 mm/hr 0.01 in0.3 mm
04:07 AM 43.2°F6.2°C 42.1°F5.6°C 96% 5.0 mph ESE8.0 kmh ESE 11.0 mph17.7 kmh 29.73 in1006.8 mb 0.00 in0.0 mm 0.00 in/hr0.0 mm/hr 0.01 in0.3 mm
04:06 AM 43.2°F6.2°C 42.1°F5.6°C 96% 5.0 mph ESE8.0 kmh ESE 11.0 mph17.7 kmh 29.73 in1006.8 mb 0.00 in0.0 mm 0.00 in/hr0.0 mm/hr 0.01 in0.3 mm
04:05 AM 43.2°F6.2°C 42.1°F5.6°C 96% 5.0 mph ESE8.0 kmh ESE 11.0 mph17.7 kmh 29.74 in1007.1 mb 0.00 in0.0 mm 0.00 in/hr0.0 mm/hr 0.01 in0.3 mm
04:04 AM 43.2°F6.2°C 42.1°F5.6°C 96% 5.0 mph ESE8.0 kmh ESE 11.0 mph17.7 kmh 29.74 in1007.1 mb 0.00 in0.0 mm 0.00 in/hr0.0 mm/hr 0.01 in0.3 mm
04:03 AM 43.2°F6.2°C 42.1°F5.6°C 96% 4.0 mph ESE6.4 kmh ESE 11.0 mph17.7 kmh 29.73 in1006.8 mb 0.00 in0.0 mm 0.00 in/hr0.0 mm/hr 0.01 in0.3 mm
04:02 AM 43.2°F6.2°C 42.1°F5.6°C 96% 4.0 mph ESE6.4 kmh ESE 11.0 mph17.7 kmh 29.73 in1006.8 mb 0.00 in0.0 mm 0.00 in/hr0.0 mm/hr 0.01 in0.3 mm
04:01 AM 43.2°F6.2°C 42.1°F5.6°C 96% 4.0 mph ESE6.4 kmh ESE 11.0 mph17.7 kmh 29.73 in1006.8 mb 0.00 in0.0 mm 0.00 in/hr0.0 mm/hr 0.01 in0.3 mm
04:00 AM 43.2°F6.2°C 42.1°F5.6°C 96% 4.0 mph ESE6.4 kmh ESE 11.0 mph17.7 kmh 29.73 in1006.8 mb 0.00 in0.0 mm 0.00 in/hr0.0 mm/hr 0.01 in0.3 mm
03:59 AM 43.2°F6.2°C 42.1°F5.6°C 96% 4.0 mph ESE6.4 kmh ESE 11.0 mph17.7 kmh 29.73 in1006.8 mb 0.00 in0.0 mm 0.00 in/hr0.0 mm/hr 0.01 in0.3 mm
03:58 AM 43.2°F6.2°C 42.1°F5.6°C 96% 4.0 mph ESE6.4 kmh ESE 11.0 mph17.7 kmh 29.73 in1006.8 mb 0.00 in0.0 mm 0.00 in/hr0.0 mm/hr 0.01 in0.3 mm
03:57 AM 43.2°F6.2°C 42.1°F5.6°C 96% 4.0 mph ESE6.4 kmh ESE 11.0 mph17.7 kmh 29.73 in1006.8 mb 0.00 in0.0 mm 0.00 in/hr0.0 mm/hr 0.01 in0.3 mm
03:56 AM 43.2°F6.2°C 42.1°F5.6°C 96% 4.0 mph ESE6.4 kmh ESE 11.0 mph17.7 kmh 29.73 in1006.8 mb 0.00 in0.0 mm 0.00 in/hr0.0 mm/hr 0.01 in0.3 mm
03:55 AM 43.2°F6.2°C 42.1°F5.6°C 96% 4.0 mph ESE6.4 kmh ESE 11.0 mph17.7 kmh 29.73 in1006.8 mb 0.00 in0.0 mm 0.00 in/hr0.0 mm/hr 0.01 in0.3 mm
03:54 AM 43.2°F6.2°C 42.1°F5.6°C 96% 5.0 mph ESE8.0 kmh ESE 11.0 mph17.7 kmh 29.73 in1006.8 mb 0.00 in0.0 mm 0.00 in/hr0.0 mm/hr 0.01 in0.3 mm
03:53 AM 43.2°F6.2°C 42.1°F5.6°C 96% 5.0 mph ESE8.0 kmh ESE 11.0 mph17.7 kmh 29.73 in1006.8 mb 0.00 in0.0 mm 0.00 in/hr0.0 mm/hr 0.01 in0.3 mm
03:52 AM 43.2°F6.2°C 42.1°F5.6°C 96% 5.0 mph ESE8.0 kmh ESE 11.0 mph17.7 kmh 29.74 in1007.1 mb 0.00 in0.0 mm 0.00 in/hr0.0 mm/hr 0.01 in0.3 mm
03:51 AM 43.2°F6.2°C 42.1°F5.6°C 96% 5.0 mph ESE8.0 kmh ESE 11.0 mph17.7 kmh 29.74 in1007.1 mb 0.00 in0.0 mm 0.00 in/hr0.0 mm/hr 0.01 in0.3 mm
03:50 AM 43.2°F6.2°C 42.1°F5.6°C 96% 6.0 mph ESE9.7 kmh ESE 11.0 mph17.7 kmh 29.74 in1007.1 mb 0.00 in0.0 mm 0.00 in/hr0.0 mm/hr 0.01 in0.3 mm
03:49 AM 43.2°F6.2°C 42.1°F5.6°C 96% 6.0 mph ESE9.7 kmh ESE 11.0 mph17.7 kmh 29.74 in1007.1 mb 0.00 in0.0 mm 0.00 in/hr0.0 mm/hr 0.01 in0.3 mm
03:48 AM 43.2°F6.2°C 42.1°F5.6°C 96% 6.0 mph ESE9.7 kmh ESE 15.0 mph24.1 kmh 29.74 in1007.1 mb 0.00 in0.0 mm 0.00 in/hr0.0 mm/hr 0.01 in0.3 mm
03:47 AM 43.2°F6.2°C 42.1°F5.6°C 96% 6.0 mph SE9.7 kmh SE 15.0 mph24.1 kmh 29.73 in1006.8 mb 0.00 in0.0 mm 0.00 in/hr0.0 mm/hr 0.01 in0.3 mm
03:46 AM 43.2°F6.2°C 42.1°F5.6°C 96% 6.0 mph SE9.7 kmh SE 15.0 mph24.1 kmh 29.74 in1007.1 mb 0.00 in0.0 mm 0.00 in/hr0.0 mm/hr 0.01 in0.3 mm
03:45 AM 43.2°F6.2°C 42.1°F5.6°C 96% 6.0 mph SE9.7 kmh SE 15.0 mph24.1 kmh 29.74 in1007.1 mb 0.00 in0.0 mm 0.00 in/hr0.0 mm/hr 0.01 in0.3 mm
03:44 AM 43.2°F6.2°C 42.1°F5.6°C 96% 6.0 mph SE9.7 kmh SE 15.0 mph24.1 kmh 29.74 in1007.1 mb 0.00 in0.0 mm 0.00 in/hr0.0 mm/hr 0.01 in0.3 mm
03:43 AM 43.2°F6.2°C 42.1°F5.6°C 96% 6.0 mph SE9.7 kmh SE 15.0 mph24.1 kmh 29.73 in1006.8 mb 0.00 in0.0 mm 0.00 in/hr0.0 mm/hr 0.01 in0.3 mm
03:42 AM 43.2°F6.2°C 42.1°F5.6°C 96% 6.0 mph SE9.7 kmh SE 15.0 mph24.1 kmh 29.74 in1007.1 mb 0.00 in0.0 mm 0.00 in/hr0.0 mm/hr 0.01 in0.3 mm
03:41 AM 43.2°F6.2°C 42.1°F5.6°C 96% 6.0 mph SE9.7 kmh SE 15.0 mph24.1 kmh 29.73 in1006.8 mb 0.00 in0.0 mm 0.00 in/hr0.0 mm/hr 0.01 in0.3 mm
03:40 AM 43.2°F6.2°C 42.1°F5.6°C 96% 5.0 mph SE8.0 kmh SE 15.0 mph24.1 kmh 29.74 in1007.1 mb 0.00 in0.0 mm 0.00 in/hr0.0 mm/hr 0.01 in0.3 mm
03:39 AM 43.2°F6.2°C 42.1°F5.6°C 96% 5.0 mph SE8.0 kmh SE 15.0 mph24.1 kmh 29.73 in1006.8 mb 0.00 in0.0 mm 0.00 in/hr0.0 mm/hr 0.01 in0.3 mm
03:38 AM 43.2°F6.2°C 42.1°F5.6°C 96% 5.0 mph SE8.0 kmh SE 11.0 mph17.7 kmh 29.73 in1006.8 mb 0.00 in0.0 mm 0.00 in/hr0.0 mm/hr 0.01 in0.3 mm
03:37 AM 43.2°F6.2°C 42.1°F5.6°C 96% 5.0 mph SE8.0 kmh SE 11.0 mph17.7 kmh 29.74 in1007.1 mb 0.00 in0.0 mm 0.00 in/hr0.0 mm/hr 0.01 in0.3 mm
03:36 AM 43.2°F6.2°C 42.1°F5.6°C 96% 5.0 mph SE8.0 kmh SE 11.0 mph17.7 kmh 29.74 in1007.1 mb 0.00 in0.0 mm 0.00 in/hr0.0 mm/hr 0.01 in0.3 mm
03:35 AM 43.2°F6.2°C 42.1°F5.6°C 96% 4.0 mph SE6.4 kmh SE 11.0 mph17.7 kmh 29.73 in1006.8 mb 0.00 in0.0 mm 0.00 in/hr0.0 mm/hr 0.01 in0.3 mm
03:34 AM 43.2°F6.2°C 42.1°F5.6°C 96% 5.0 mph SE8.0 kmh SE 11.0 mph17.7 kmh 29.73 in1006.8 mb 0.00 in0.0 mm 0.00 in/hr0.0 mm/hr 0.01 in0.3 mm
03:33 AM 43.2°F6.2°C 42.1°F5.6°C 96% 5.0 mph SE8.0 kmh SE 12.0 mph19.3 kmh 29.73 in1006.8 mb 0.00 in0.0 mm 0.00 in/hr0.0 mm/hr 0.01 in0.3 mm
03:32 AM 43.2°F6.2°C 42.1°F5.6°C 96% 5.0 mph SE8.0 kmh SE 12.0 mph19.3 kmh 29.73 in1006.8 mb 0.00 in0.0 mm 0.00 in/hr0.0 mm/hr 0.01 in0.3 mm
03:31 AM 43.2°F6.2°C 42.1°F5.6°C 96% 5.0 mph SE8.0 kmh SE 12.0 mph19.3 kmh 29.73 in1006.8 mb 0.00 in0.0 mm 0.00 in/hr0.0 mm/hr 0.01 in0.3 mm
03:30 AM 43.2°F6.2°C 42.1°F5.6°C 96% 5.0 mph SE8.0 kmh SE 12.0 mph19.3 kmh 29.73 in1006.8 mb 0.00 in0.0 mm 0.00 in/hr0.0 mm/hr 0.01 in0.3 mm
03:29 AM 43.2°F6.2°C 42.1°F5.6°C 96% 6.0 mph SE9.7 kmh SE 12.0 mph19.3 kmh 29.73 in1006.8 mb 0.00 in0.0 mm 0.00 in/hr0.0 mm/hr 0.01 in0.3 mm
03:28 AM 43.2°F6.2°C 42.1°F5.6°C 96% 6.0 mph SE9.7 kmh SE 13.0 mph20.9 kmh 29.73 in1006.8 mb 0.00 in0.0 mm 0.00 in/hr0.0 mm/hr 0.01 in0.3 mm
03:27 AM 43.2°F6.2°C 42.1°F5.6°C 96% 6.0 mph SE9.7 kmh SE 13.0 mph20.9 kmh 29.73 in1006.8 mb 0.00 in0.0 mm 0.00 in/hr0.0 mm/hr 0.01 in0.3 mm
03:26 AM 43.2°F6.2°C 42.1°F5.6°C 96% 6.0 mph SE9.7 kmh SE 13.0 mph20.9 kmh 29.73 in1006.8 mb 0.00 in0.0 mm 0.00 in/hr0.0 mm/hr 0.01 in0.3 mm
03:25 AM 43.2°F6.2°C 42.1°F5.6°C 96% 7.0 mph SE11.3 kmh SE 13.0 mph20.9 kmh 29.73 in1006.8 mb 0.00 in0.0 mm 0.00 in/hr0.0 mm/hr 0.01 in0.3 mm
03:24 AM 43.2°F6.2°C 42.1°F5.6°C 96% 6.0 mph SE9.7 kmh SE 13.0 mph20.9 kmh 29.73 in1006.8 mb 0.00 in0.0 mm 0.00 in/hr0.0 mm/hr 0.01 in0.3 mm
03:23 AM 43.2°F6.2°C 42.3°F5.7°C 97% 6.0 mph SE9.7 kmh SE 13.0 mph20.9 kmh 29.73 in1006.8 mb 0.00 in0.0 mm 0.00 in/hr0.0 mm/hr 0.01 in0.3 mm
03:22 AM 43.0°F6.1°C 42.3°F5.7°C 97% 6.0 mph SE9.7 kmh SE 13.0 mph20.9 kmh 29.73 in1006.8 mb 0.00 in0.0 mm 0.00 in/hr0.0 mm/hr 0.01 in0.3 mm
03:21 AM 43.2°F6.2°C 42.3°F5.7°C 97% 7.0 mph SE11.3 kmh SE 13.0 mph20.9 kmh 29.73 in1006.8 mb 0.00 in0.0 mm 0.00 in/hr0.0 mm/hr 0.01 in0.3 mm
03:20 AM 43.2°F6.2°C 42.3°F5.7°C 97% 6.0 mph ESE9.7 kmh ESE 13.0 mph20.9 kmh 29.73 in1006.8 mb 0.00 in0.0 mm 0.00 in/hr0.0 mm/hr 0.01 in0.3 mm
03:19 AM 43.2°F6.2°C 42.3°F5.7°C 97% 6.0 mph SE9.7 kmh SE 13.0 mph20.9 kmh 29.73 in1006.8 mb 0.00 in0.0 mm 0.00 in/hr0.0 mm/hr 0.01 in0.3 mm
03:18 AM 43.2°F6.2°C 42.3°F5.7°C 97% 6.0 mph ESE9.7 kmh ESE 11.0 mph17.7 kmh 29.73 in1006.8 mb 0.00 in0.0 mm 0.00 in/hr0.0 mm/hr 0.01 in0.3 mm
03:17 AM 43.2°F6.2°C 42.3°F5.7°C 97% 6.0 mph ESE9.7 kmh ESE 10.0 mph16.1 kmh 29.73 in1006.8 mb 0.00 in0.0 mm 0.00 in/hr0.0 mm/hr 0.01 in0.3 mm
03:16 AM 43.2°F6.2°C 42.3°F5.7°C 97% 6.0 mph ESE9.7 kmh ESE 11.0 mph17.7 kmh 29.73 in1006.8 mb 0.00 in0.0 mm 0.00 in/hr0.0 mm/hr 0.01 in0.3 mm
03:15 AM 43.2°F6.2°C 42.3°F5.7°C 97% 6.0 mph ESE9.7 kmh ESE 11.0 mph17.7 kmh 29.73 in1006.8 mb 0.00 in0.0 mm 0.00 in/hr0.0 mm/hr 0.01 in0.3 mm
03:14 AM 43.0°F6.1°C 42.3°F5.7°C 97% 6.0 mph ESE9.7 kmh ESE 12.0 mph19.3 kmh 29.73 in1006.8 mb 0.00 in0.0 mm 0.00 in/hr0.0 mm/hr 0.01 in0.3 mm
03:13 AM 43.2°F6.2°C 42.3°F5.7°C 97% 6.0 mph SE9.7 kmh SE 13.0 mph20.9 kmh 29.73 in1006.8 mb 0.00 in0.0 mm 0.00 in/hr0.0 mm/hr 0.01 in0.3 mm
03:12 AM 43.2°F6.2°C 42.3°F5.7°C 97% 6.0 mph ESE9.7 kmh ESE 13.0 mph20.9 kmh 29.73 in1006.8 mb 0.00 in0.0 mm 0.00 in/hr0.0 mm/hr 0.01 in0.3 mm
03:11 AM 43.0°F6.1°C 42.3°F5.7°C 97% 6.0 mph ESE9.7 kmh ESE 13.0 mph20.9 kmh 29.73 in1006.8 mb 0.00 in0.0 mm 0.00 in/hr0.0 mm/hr 0.01 in0.3 mm
03:10 AM 43.2°F6.2°C 42.3°F5.7°C 97% 6.0 mph SE9.7 kmh SE 13.0 mph20.9 kmh 29.73 in1006.8 mb 0.00 in0.0 mm 0.00 in/hr0.0 mm/hr 0.01 in0.3 mm
03:09 AM 43.2°F6.2°C 42.3°F5.7°C 97% 6.0 mph ESE9.7 kmh ESE 13.0 mph20.9 kmh 29.73 in1006.8 mb 0.00 in0.0 mm 0.00 in/hr0.0 mm/hr 0.01 in0.3 mm
03:08 AM 43.0°F6.1°C 42.3°F5.7°C 97% 6.0 mph ESE9.7 kmh ESE 13.0 mph20.9 kmh 29.73 in1006.8 mb 0.00 in0.0 mm 0.00 in/hr0.0 mm/hr 0.01 in0.3 mm
03:07 AM 43.0°F6.1°C 42.3°F5.7°C 97% 6.0 mph ESE9.7 kmh ESE 13.0 mph20.9 kmh 29.73 in1006.8 mb 0.00 in0.0 mm 0.00 in/hr0.0 mm/hr 0.01 in0.3 mm
03:06 AM 43.2°F6.2°C 42.3°F5.7°C 97% 6.0 mph ESE9.7 kmh ESE 13.0 mph20.9 kmh 29.73 in1006.8 mb 0.00 in0.0 mm 0.00 in/hr0.0 mm/hr 0.01 in0.3 mm
03:05 AM 43.2°F6.2°C 42.3°F5.7°C 97% 6.0 mph ESE9.7 kmh ESE 13.0 mph20.9 kmh 29.73 in1006.8 mb 0.00 in0.0 mm 0.00 in/hr0.0 mm/hr 0.01 in0.3 mm
03:04 AM 43.2°F6.2°C 42.3°F5.7°C 97% 6.0 mph ESE9.7 kmh ESE 13.0 mph20.9 kmh 29.73 in1006.8 mb 0.00 in0.0 mm 0.00 in/hr0.0 mm/hr 0.01 in0.3 mm
03:03 AM 43.0°F6.1°C 42.3°F5.7°C 97% 6.0 mph ESE9.7 kmh ESE 10.0 mph16.1 kmh 29.73 in1006.8 mb 0.00 in0.0 mm 0.00 in/hr0.0 mm/hr 0.01 in0.3 mm
03:02 AM 43.0°F6.1°C 42.3°F5.7°C 97% 6.0 mph ESE9.7 kmh ESE 10.0 mph16.1 kmh 29.73 in1006.8 mb 0.00 in0.0 mm 0.00 in/hr0.0 mm/hr 0.01 in0.3 mm
03:01 AM 43.0°F6.1°C 42.3°F5.7°C 97% 6.0 mph ESE9.7 kmh ESE 10.0 mph16.1 kmh 29.73 in1006.8 mb 0.00 in0.0 mm 0.00 in/hr0.0 mm/hr 0.01 in0.3 mm
03:00 AM 43.0°F6.1°C 42.3°F5.7°C 97% 6.0 mph ESE9.7 kmh ESE 10.0 mph16.1 kmh 29.73 in1006.8 mb 0.00 in0.0 mm 0.00 in/hr0.0 mm/hr 0.01 in0.3 mm
02:59 AM 43.0°F6.1°C 42.3°F5.7°C 97% 6.0 mph ESE9.7 kmh ESE 12.0 mph19.3 kmh 29.73 in1006.8 mb 0.00 in0.0 mm 0.00 in/hr0.0 mm/hr 0.01 in0.3 mm
02:58 AM 43.2°F6.2°C 42.3°F5.7°C 97% 6.0 mph ESE9.7 kmh ESE 12.0 mph19.3 kmh 29.73 in1006.8 mb 0.00 in0.0 mm 0.00 in/hr0.0 mm/hr 0.01 in0.3 mm
02:57 AM 43.0°F6.1°C 42.3°F5.7°C 97% 6.0 mph SE9.7 kmh SE 12.0 mph19.3 kmh 29.73 in1006.8 mb 0.00 in0.0 mm 0.00 in/hr0.0 mm/hr 0.01 in0.3 mm
02:56 AM 43.0°F6.1°C 42.3°F5.7°C 97% 6.0 mph SE9.7 kmh SE 12.0 mph19.3 kmh 29.73 in1006.8 mb 0.00 in0.0 mm 0.00 in/hr0.0 mm/hr 0.01 in0.3 mm
02:55 AM 43.0°F6.1°C 42.3°F5.7°C 97% 6.0 mph ESE9.7 kmh ESE 12.0 mph19.3 kmh 29.73 in1006.8 mb 0.00 in0.0 mm 0.00 in/hr0.0 mm/hr 0.01 in0.3 mm
02:54 AM 43.0°F6.1°C 42.3°F5.7°C 97% 6.0 mph SE9.7 kmh SE 12.0 mph19.3 kmh 29.73 in1006.8 mb 0.00 in0.0 mm 0.00 in/hr0.0 mm/hr 0.01 in0.3 mm
02:53 AM 43.0°F6.1°C 42.3°F5.7°C 97% 6.0 mph SE9.7 kmh SE 13.0 mph20.9 kmh 29.73 in1006.8 mb 0.00 in0.0 mm 0.00 in/hr0.0 mm/hr 0.01 in0.3 mm
02:52 AM 43.0°F6.1°C 42.3°F5.7°C 97% 7.0 mph ESE11.3 kmh ESE 13.0 mph20.9 kmh 29.73 in1006.8 mb 0.00 in0.0 mm 0.00 in/hr0.0 mm/hr 0.01 in0.3 mm
02:51 AM 43.0°F6.1°C 42.3°F5.7°C 97% 7.0 mph SE11.3 kmh SE 13.0 mph20.9 kmh 29.73 in1006.8 mb 0.00 in0.0 mm 0.00 in/hr0.0 mm/hr 0.01 in0.3 mm
02:50 AM 43.0°F6.1°C 42.3°F5.7°C 97% 7.0 mph SE11.3 kmh SE 13.0 mph20.9 kmh 29.73 in1006.8 mb 0.00 in0.0 mm 0.00 in/hr0.0 mm/hr 0.01 in0.3 mm
02:49 AM 43.0°F6.1°C 42.3°F5.7°C 97% 7.0 mph SE11.3 kmh SE 13.0 mph20.9 kmh 29.73 in1006.8 mb 0.00 in0.0 mm 0.00 in/hr0.0 mm/hr 0.01 in0.3 mm
02:48 AM 43.0°F6.1°C 42.3°F5.7°C 97% 7.0 mph SE11.3 kmh SE 13.0 mph20.9 kmh 29.73 in1006.8 mb 0.00 in0.0 mm 0.00 in/hr0.0 mm/hr 0.01 in0.3 mm
02:47 AM 43.0°F6.1°C 42.1°F5.6°C 97% 7.0 mph ESE11.3 kmh ESE 14.0 mph22.5 kmh 29.73 in1006.8 mb 0.00 in0.0 mm 0.00 in/hr0.0 mm/hr 0.01 in0.3 mm
02:46 AM 43.0°F6.1°C 42.3°F5.7°C 97% 7.0 mph ESE11.3 kmh ESE 14.0 mph22.5 kmh 29.73 in1006.8 mb 0.00 in0.0 mm 0.00 in/hr0.0 mm/hr 0.01 in0.3 mm
02:45 AM 43.0°F6.1°C 42.1°F5.6°C 97% 8.0 mph ESE12.9 kmh ESE 14.0 mph22.5 kmh 29.73 in1006.8 mb 0.00 in0.0 mm 0.00 in/hr0.0 mm/hr 0.01 in0.3 mm
02:44 AM 43.0°F6.1°C 42.3°F5.7°C 97% 8.0 mph ESE12.9 kmh ESE 14.0 mph22.5 kmh 29.73 in1006.8 mb 0.00 in0.0 mm 0.00 in/hr0.0 mm/hr 0.01 in0.3 mm
02:43 AM 43.0°F6.1°C 42.1°F5.6°C 97% 8.0 mph ESE12.9 kmh ESE 14.0 mph22.5 kmh 29.73 in1006.8 mb 0.00 in0.0 mm 0.00 in/hr0.0 mm/hr 0.01 in0.3 mm
02:42 AM 43.0°F6.1°C 42.1°F5.6°C 97% 7.0 mph ESE11.3 kmh ESE 14.0 mph22.5 kmh 29.73 in1006.8 mb 0.00 in0.0 mm 0.00 in/hr0.0 mm/hr 0.01 in0.3 mm
02:41 AM 43.0°F6.1°C 42.1°F5.6°C 97% 7.0 mph SE11.3 kmh SE 14.0 mph22.5 kmh 29.73 in1006.8 mb 0.00 in0.0 mm 0.00 in/hr0.0 mm/hr 0.01 in0.3 mm
02:40 AM 43.0°F6.1°C 42.1°F5.6°C 97% 8.0 mph SE12.9 kmh SE 14.0 mph22.5 kmh 29.72 in1006.4 mb 0.00 in0.0 mm 0.00 in/hr0.0 mm/hr 0.01 in0.3 mm
02:39 AM 43.0°F6.1°C 42.1°F5.6°C 97% 7.0 mph SE11.3 kmh SE 14.0 mph22.5 kmh 29.72 in1006.4 mb 0.00 in0.0 mm 0.00 in/hr0.0 mm/hr 0.01 in0.3 mm
02:38 AM 43.0°F6.1°C 42.1°F5.6°C 97% 7.0 mph SE11.3 kmh SE 14.0 mph22.5 kmh 29.72 in1006.4 mb 0.00 in0.0 mm 0.00 in/hr0.0 mm/hr 0.01 in0.3 mm
02:37 AM 43.0°F6.1°C 42.1°F5.6°C 97% 7.0 mph SE11.3 kmh SE 14.0 mph22.5 kmh 29.72 in1006.4 mb 0.00 in0.0 mm 0.00 in/hr0.0 mm/hr 0.01 in0.3 mm
02:36 AM 43.0°F6.1°C 42.1°F5.6°C 97% 7.0 mph SE11.3 kmh SE 14.0 mph22.5 kmh 29.72 in1006.4 mb 0.00 in0.0 mm 0.00 in/hr0.0 mm/hr 0.01 in0.3 mm
02:35 AM 43.0°F6.1°C 42.1°F5.6°C 97% 7.0 mph SE11.3 kmh SE 14.0 mph22.5 kmh 29.72 in1006.4 mb 0.00 in0.0 mm 0.00 in/hr0.0 mm/hr 0.01 in0.3 mm
02:34 AM 43.0°F6.1°C 42.1°F5.6°C 97% 7.0 mph SE11.3 kmh SE 13.0 mph20.9 kmh 29.72 in1006.4 mb 0.00 in0.0 mm 0.00 in/hr0.0 mm/hr 0.01 in0.3 mm
02:33 AM 43.0°F6.1°C 42.1°F5.6°C 97% 7.0 mph SE11.3 kmh SE 13.0 mph20.9 kmh 29.72 in1006.4 mb 0.00 in0.0 mm 0.00 in/hr0.0 mm/hr 0.01 in0.3 mm
02:32 AM 43.0°F6.1°C 42.1°F5.6°C 97% 7.0 mph SE11.3 kmh SE 13.0 mph20.9 kmh 29.72 in1006.4 mb 0.00 in0.0 mm 0.00 in/hr0.0 mm/hr 0.01 in0.3 mm
02:31 AM 43.0°F6.1°C 42.1°F5.6°C 97% 7.0 mph SE11.3 kmh SE 13.0 mph20.9 kmh 29.72 in1006.4 mb 0.00 in0.0 mm 0.00 in/hr0.0 mm/hr 0.01 in0.3 mm
02:30 AM 43.0°F6.1°C 42.1°F5.6°C 97% 7.0 mph SE11.3 kmh SE 13.0 mph20.9 kmh 29.72 in1006.4 mb 0.00 in0.0 mm 0.00 in/hr0.0 mm/hr 0.01 in0.3 mm
02:29 AM 43.0°F6.1°C 42.1°F5.6°C 97% 7.0 mph ESE11.3 kmh ESE 13.0 mph20.9 kmh 29.72 in1006.4 mb 0.00 in0.0 mm 0.00 in/hr0.0 mm/hr 0.01 in0.3 mm
02:28 AM 43.0°F6.1°C 42.1°F5.6°C 97% 7.0 mph ESE11.3 kmh ESE 13.0 mph20.9 kmh 29.72 in1006.4 mb 0.00 in0.0 mm 0.00 in/hr0.0 mm/hr 0.01 in0.3 mm
02:27 AM 43.0°F6.1°C 42.1°F5.6°C 97% 7.0 mph ESE11.3 kmh ESE 13.0 mph20.9 kmh 29.72 in1006.4 mb 0.00 in0.0 mm 0.00 in/hr0.0 mm/hr 0.01 in0.3 mm
02:26 AM 43.0°F6.1°C 42.1°F5.6°C 97% 6.0 mph SE9.7 kmh SE 13.0 mph20.9 kmh 29.72 in1006.4 mb 0.00 in0.0 mm 0.00 in/hr0.0 mm/hr 0.01 in0.3 mm
02:25 AM 43.0°F6.1°C 42.1°F5.6°C 97% 6.0 mph SE9.7 kmh SE 13.0 mph20.9 kmh 29.72 in1006.4 mb 0.00 in0.0 mm 0.00 in/hr0.0 mm/hr 0.01 in0.3 mm
02:24 AM 43.0°F6.1°C 42.1°F5.6°C 97% 7.0 mph SE11.3 kmh SE 12.0 mph19.3 kmh 29.72 in1006.4 mb 0.00 in0.0 mm 0.00 in/hr0.0 mm/hr 0.01 in0.3 mm
02:23 AM 43.0°F6.1°C 42.1°F5.6°C 97% 6.0 mph SE9.7 kmh SE 12.0 mph19.3 kmh 29.72 in1006.4 mb 0.00 in0.0 mm 0.00 in/hr0.0 mm/hr 0.01 in0.3 mm
02:22 AM 43.0°F6.1°C 42.1°F5.6°C 97% 6.0 mph SE9.7 kmh SE 12.0 mph19.3 kmh 29.72 in1006.4 mb 0.00 in0.0 mm 0.00 in/hr0.0 mm/hr 0.01 in0.3 mm
02:21 AM 43.0°F6.1°C 42.1°F5.6°C 97% 7.0 mph SE11.3 kmh SE 14.0 mph22.5 kmh 29.72 in1006.4 mb 0.00 in0.0 mm 0.00 in/hr0.0 mm/hr 0.01 in0.3 mm
02:20 AM 43.0°F6.1°C 42.1°F5.6°C 97% 6.0 mph SE9.7 kmh SE 14.0 mph22.5 kmh 29.72 in1006.4 mb 0.00 in0.0 mm 0.00 in/hr0.0 mm/hr 0.01 in0.3 mm
02:19 AM 43.0°F6.1°C 42.1°F5.6°C 97% 6.0 mph SE9.7 kmh SE 14.0 mph22.5 kmh 29.72 in1006.4 mb 0.00 in0.0 mm 0.00 in/hr0.0 mm/hr 0.01 in0.3 mm
02:18 AM 43.0°F6.1°C 42.1°F5.6°C 97% 6.0 mph SE9.7 kmh SE 14.0 mph22.5 kmh 29.72 in1006.4 mb 0.00 in0.0 mm 0.00 in/hr0.0 mm/hr 0.01 in0.3 mm
02:17 AM 43.0°F6.1°C 42.1°F5.6°C 97% 6.0 mph SE9.7 kmh SE 14.0 mph22.5 kmh 29.72 in1006.4 mb 0.00 in0.0 mm 0.00 in/hr0.0 mm/hr 0.01 in0.3 mm
02:16 AM 43.0°F6.1°C 42.1°F5.6°C 97% 6.0 mph ESE9.7 kmh ESE 14.0 mph22.5 kmh 29.72 in1006.4 mb 0.00 in0.0 mm 0.00 in/hr0.0 mm/hr 0.01 in0.3 mm
02:15 AM 43.0°F6.1°C 42.1°F5.6°C 97% 6.0 mph ESE9.7 kmh ESE 14.0 mph22.5 kmh 29.72 in1006.4 mb 0.00 in0.0 mm 0.00 in/hr0.0 mm/hr 0.01 in0.3 mm
02:14 AM 43.0°F6.1°C 42.1°F5.6°C 97% 6.0 mph ESE9.7 kmh ESE 14.0 mph22.5 kmh 29.72 in1006.4 mb 0.00 in0.0 mm 0.00 in/hr0.0 mm/hr 0.01 in0.3 mm
02:13 AM 43.0°F6.1°C 42.1°F5.6°C 97% 6.0 mph ESE9.7 kmh ESE 14.0 mph22.5 kmh 29.72 in1006.4 mb 0.00 in0.0 mm 0.00 in/hr0.0 mm/hr 0.01 in0.3 mm
02:12 AM 43.0°F6.1°C 42.1°F5.6°C 97% 6.0 mph ESE9.7 kmh ESE 14.0 mph22.5 kmh 29.72 in1006.4 mb 0.00 in0.0 mm 0.00 in/hr0.0 mm/hr 0.01 in0.3 mm
02:11 AM 43.0°F6.1°C 42.1°F5.6°C 97% 6.0 mph ESE9.7 kmh ESE 11.0 mph17.7 kmh 29.72 in1006.4 mb 0.00 in0.0 mm 0.00 in/hr0.0 mm/hr 0.01 in0.3 mm
02:10 AM 43.0°F6.1°C 42.1°F5.6°C 97% 6.0 mph ESE9.7 kmh ESE 11.0 mph17.7 kmh 29.72 in1006.4 mb 0.00 in0.0 mm 0.00 in/hr0.0 mm/hr 0.01 in0.3 mm
02:09 AM 43.0°F6.1°C 42.1°F5.6°C 97% 6.0 mph ESE9.7 kmh ESE 11.0 mph17.7 kmh 29.72 in1006.4 mb 0.00 in0.0 mm 0.00 in/hr0.0 mm/hr 0.01 in0.3 mm
02:08 AM 43.0°F6.1°C 42.1°F5.6°C 97% 6.0 mph ESE9.7 kmh ESE 11.0 mph17.7 kmh 29.72 in1006.4 mb 0.00 in0.0 mm 0.00 in/hr0.0 mm/hr 0.01 in0.3 mm
02:07 AM 43.0°F6.1°C 42.1°F5.6°C 97% 6.0 mph ESE9.7 kmh ESE 11.0 mph17.7 kmh 29.72 in1006.4 mb 0.00 in0.0 mm 0.00 in/hr0.0 mm/hr 0.01 in0.3 mm
02:06 AM 43.0°F6.1°C 42.1°F5.6°C 97% 6.0 mph SE9.7 kmh SE 11.0 mph17.7 kmh 29.72 in1006.4 mb 0.00 in0.0 mm 0.00 in/hr0.0 mm/hr 0.01 in0.3 mm
02:05 AM 43.0°F6.1°C 42.1°F5.6°C 97% 6.0 mph SE9.7 kmh SE 11.0 mph17.7 kmh 29.72 in1006.4 mb 0.00 in0.0 mm 0.00 in/hr0.0 mm/hr 0.01 in0.3 mm
02:04 AM 43.0°F6.1°C 42.1°F5.6°C 97% 6.0 mph SE9.7 kmh SE 11.0 mph17.7 kmh 29.73 in1006.8 mb 0.00 in0.0 mm 0.00 in/hr0.0 mm/hr 0.01 in0.3 mm
02:03 AM 43.0°F6.1°C 42.1°F5.6°C 97% 5.0 mph SE8.0 kmh SE 11.0 mph17.7 kmh 29.72 in1006.4 mb 0.00 in0.0 mm 0.00 in/hr0.0 mm/hr 0.01 in0.3 mm
02:02 AM 43.0°F6.1°C 42.1°F5.6°C 97% 6.0 mph SE9.7 kmh SE 11.0 mph17.7 kmh 29.72 in1006.4 mb 0.00 in0.0 mm 0.00 in/hr0.0 mm/hr 0.01 in0.3 mm
02:01 AM 43.0°F6.1°C 42.1°F5.6°C 97% 6.0 mph SE9.7 kmh SE 11.0 mph17.7 kmh 29.72 in1006.4 mb 0.00 in0.0 mm 0.00 in/hr0.0 mm/hr 0.01 in0.3 mm
02:00 AM 43.0°F6.1°C 42.1°F5.6°C 97% 6.0 mph SE9.7 kmh SE 11.0 mph17.7 kmh 29.72 in1006.4 mb 0.00 in0.0 mm 0.00 in/hr0.0 mm/hr 0.01 in0.3 mm
01:59 AM 43.0°F6.1°C 42.1°F5.6°C 97% 6.0 mph SE9.7 kmh SE 11.0 mph17.7 kmh 29.72 in1006.4 mb 0.00 in0.0 mm 0.00 in/hr0.0 mm/hr 0.01 in0.3 mm
01:58 AM 43.0°F6.1°C 42.1°F5.6°C 97% 6.0 mph SE9.7 kmh SE 11.0 mph17.7 kmh 29.72 in1006.4 mb 0.00 in0.0 mm 0.00 in/hr0.0 mm/hr 0.01 in0.3 mm
01:57 AM 43.0°F6.1°C 42.1°F5.6°C 97% 6.0 mph SE9.7 kmh SE 10.0 mph16.1 kmh 29.72 in1006.4 mb 0.00 in0.0 mm 0.00 in/hr0.0 mm/hr 0.01 in0.3 mm
01:56 AM 43.0°F6.1°C 42.1°F5.6°C 97% 6.0 mph SE9.7 kmh SE 10.0 mph16.1 kmh 29.72 in1006.4 mb 0.00 in0.0 mm 0.00 in/hr0.0 mm/hr 0.01 in0.3 mm
01:55 AM 43.0°F6.1°C 42.1°F5.6°C 97% 5.0 mph SE8.0 kmh SE 10.0 mph16.1 kmh 29.73 in1006.8 mb 0.00 in0.0 mm 0.00 in/hr0.0 mm/hr 0.01 in0.3 mm
01:54 AM 43.0°F6.1°C 42.1°F5.6°C 97% 5.0 mph SE8.0 kmh SE 10.0 mph16.1 kmh 29.73 in1006.8 mb 0.00 in0.0 mm 0.00 in/hr0.0 mm/hr 0.01 in0.3 mm
01:53 AM 43.0°F6.1°C 42.1°F5.6°C 97% 5.0 mph SE8.0 kmh SE 10.0 mph16.1 kmh 29.72 in1006.4 mb 0.00 in0.0 mm 0.00 in/hr0.0 mm/hr 0.01 in0.3 mm
01:52 AM 43.0°F6.1°C 42.1°F5.6°C 97% 5.0 mph SE8.0 kmh SE 10.0 mph16.1 kmh 29.73 in1006.8 mb 0.00 in0.0 mm 0.00 in/hr0.0 mm/hr 0.01 in0.3 mm
01:51 AM 43.0°F6.1°C 42.1°F5.6°C 97% 5.0 mph SE8.0 kmh SE 10.0 mph16.1 kmh 29.72 in1006.4 mb 0.00 in0.0 mm 0.00 in/hr0.0 mm/hr 0.01 in0.3 mm
01:50 AM 43.0°F6.1°C 42.1°F5.6°C 97% 5.0 mph SE8.0 kmh SE 10.0 mph16.1 kmh 29.73 in1006.8 mb 0.00 in0.0 mm 0.00 in/hr0.0 mm/hr 0.01 in0.3 mm
01:49 AM 43.0°F6.1°C 42.1°F5.6°C 97% 5.0 mph SE8.0 kmh SE 10.0 mph16.1 kmh 29.72 in1006.4 mb 0.00 in0.0 mm 0.00 in/hr0.0 mm/hr 0.01 in0.3 mm
01:48 AM 43.0°F6.1°C 42.1°F5.6°C 97% 5.0 mph SE8.0 kmh SE 11.0 mph17.7 kmh 29.72 in1006.4 mb 0.00 in0.0 mm 0.00 in/hr0.0 mm/hr 0.01 in0.3 mm
01:47 AM 43.0°F6.1°C 42.1°F5.6°C 97% 5.0 mph SE8.0 kmh SE 11.0 mph17.7 kmh 29.72 in1006.4 mb 0.01 in0.3 mm 0.00 in/hr0.0 mm/hr 0.01 in0.3 mm
01:46 AM 43.0°F6.1°C 42.1°F5.6°C 97% 5.0 mph SE8.0 kmh SE 12.0 mph19.3 kmh 29.73 in1006.8 mb 0.01 in0.3 mm 0.00 in/hr0.0 mm/hr 0.01 in0.3 mm
01:45 AM 43.0°F6.1°C 42.1°F5.6°C 97% 5.0 mph SE8.0 kmh SE 12.0 mph19.3 kmh 29.73 in1006.8 mb 0.01 in0.3 mm 0.00 in/hr0.0 mm/hr 0.01 in0.3 mm
01:44 AM 43.0°F6.1°C 42.1°F5.6°C 97% 6.0 mph SE9.7 kmh SE 12.0 mph19.3 kmh 29.73 in1006.8 mb 0.01 in0.3 mm 0.00 in/hr0.0 mm/hr 0.01 in0.3 mm
01:43 AM 43.0°F6.1°C 42.1°F5.6°C 97% 6.0 mph SE9.7 kmh SE 12.0 mph19.3 kmh 29.73 in1006.8 mb 0.01 in0.3 mm 0.00 in/hr0.0 mm/hr 0.01 in0.3 mm
01:42 AM 43.0°F6.1°C 42.1°F5.6°C 97% 6.0 mph SE9.7 kmh SE 12.0 mph19.3 kmh 29.73 in1006.8 mb 0.01 in0.3 mm 0.00 in/hr0.0 mm/hr 0.01 in0.3 mm
01:41 AM 43.0°F6.1°C 42.1°F5.6°C 97% 6.0 mph SE9.7 kmh SE 12.0 mph19.3 kmh 29.72 in1006.4 mb 0.01 in0.3 mm 0.00 in/hr0.0 mm/hr 0.01 in0.3 mm
01:40 AM 43.0°F6.1°C 42.1°F5.6°C 97% 6.0 mph SE9.7 kmh SE 15.0 mph24.1 kmh 29.73 in1006.8 mb 0.01 in0.3 mm 0.00 in/hr0.0 mm/hr 0.01 in0.3 mm
01:39 AM 43.0°F6.1°C 42.1°F5.6°C 97% 7.0 mph SE11.3 kmh SE 15.0 mph24.1 kmh 29.72 in1006.4 mb 0.01 in0.3 mm 0.00 in/hr0.0 mm/hr 0.01 in0.3 mm
01:38 AM 43.0°F6.1°C 42.1°F5.6°C 97% 7.0 mph SE11.3 kmh SE 15.0 mph24.1 kmh 29.73 in1006.8 mb 0.01 in0.3 mm 0.00 in/hr0.0 mm/hr 0.01 in0.3 mm
01:37 AM 43.0°F6.1°C 42.1°F5.6°C 97% 7.0 mph SE11.3 kmh SE 15.0 mph24.1 kmh 29.72 in1006.4 mb 0.01 in0.3 mm 0.00 in/hr0.0 mm/hr 0.01 in0.3 mm
01:36 AM 43.0°F6.1°C 42.1°F5.6°C 97% 7.0 mph SE11.3 kmh SE 15.0 mph24.1 kmh 29.73 in1006.8 mb 0.01 in0.3 mm 0.00 in/hr0.0 mm/hr 0.01 in0.3 mm
01:35 AM 43.0°F6.1°C 42.1°F5.6°C 97% 7.0 mph SE11.3 kmh SE 15.0 mph24.1 kmh 29.73 in1006.8 mb 0.01 in0.3 mm 0.00 in/hr0.0 mm/hr 0.01 in0.3 mm
01:34 AM 43.0°F6.1°C 42.1°F5.6°C 97% 7.0 mph SE11.3 kmh SE 15.0 mph24.1 kmh 29.73 in1006.8 mb 0.01 in0.3 mm 0.00 in/hr0.0 mm/hr 0.01 in0.3 mm
01:33 AM 43.0°F6.1°C 42.1°F5.6°C 97% 7.0 mph SE11.3 kmh SE 15.0 mph24.1 kmh 29.73 in1006.8 mb 0.01 in0.3 mm 0.00 in/hr0.0 mm/hr 0.01 in0.3 mm
01:32 AM 43.0°F6.1°C 42.1°F5.6°C 97% 7.0 mph SE11.3 kmh SE 15.0 mph24.1 kmh 29.73 in1006.8 mb 0.01 in0.3 mm 0.00 in/hr0.0 mm/hr 0.01 in0.3 mm
01:31 AM 43.0°F6.1°C 42.3°F5.7°C 97% 7.0 mph ESE11.3 kmh ESE 15.0 mph24.1 kmh 29.73 in1006.8 mb 0.01 in0.3 mm 0.00 in/hr0.0 mm/hr 0.01 in0.3 mm
01:30 AM 43.0°F6.1°C 42.3°F5.7°C 97% 7.0 mph ESE11.3 kmh ESE 12.0 mph19.3 kmh 29.72 in1006.4 mb 0.01 in0.3 mm 0.00 in/hr0.0 mm/hr 0.01 in0.3 mm
01:29 AM 43.0°F6.1°C 42.3°F5.7°C 97% 7.0 mph ESE11.3 kmh ESE 12.0 mph19.3 kmh 29.72 in1006.4 mb 0.01 in0.3 mm 0.00 in/hr0.0 mm/hr 0.01 in0.3 mm
01:28 AM 43.0°F6.1°C 42.3°F5.7°C 97% 7.0 mph ESE11.3 kmh ESE 12.0 mph19.3 kmh 29.72 in1006.4 mb 0.01 in0.3 mm 0.00 in/hr0.0 mm/hr 0.01 in0.3 mm
01:27 AM 43.0°F6.1°C 42.3°F5.7°C 97% 6.0 mph ESE9.7 kmh ESE 12.0 mph19.3 kmh 29.72 in1006.4 mb 0.01 in0.3 mm 0.00 in/hr0.0 mm/hr 0.01 in0.3 mm
01:26 AM 43.0°F6.1°C 42.3°F5.7°C 97% 6.0 mph ESE9.7 kmh ESE 12.0 mph19.3 kmh 29.72 in1006.4 mb 0.01 in0.3 mm 0.00 in/hr0.0 mm/hr 0.01 in0.3 mm
01:25 AM 43.0°F6.1°C 42.3°F5.7°C 97% 6.0 mph ESE9.7 kmh ESE 12.0 mph19.3 kmh 29.72 in1006.4 mb 0.01 in0.3 mm 0.00 in/hr0.0 mm/hr 0.01 in0.3 mm
01:24 AM 43.0°F6.1°C 42.3°F5.7°C 97% 6.0 mph ESE9.7 kmh ESE 12.0 mph19.3 kmh 29.72 in1006.4 mb 0.01 in0.3 mm 0.00 in/hr0.0 mm/hr 0.01 in0.3 mm
01:23 AM 43.2°F6.2°C 42.3°F5.7°C 97% 6.0 mph ESE9.7 kmh ESE 12.0 mph19.3 kmh 29.73 in1006.8 mb 0.01 in0.3 mm 0.00 in/hr0.0 mm/hr 0.01 in0.3 mm
01:22 AM 43.0°F6.1°C 42.3°F5.7°C 97% 6.0 mph SE9.7 kmh SE 12.0 mph19.3 kmh 29.73 in1006.8 mb 0.01 in0.3 mm 0.00 in/hr0.0 mm/hr 0.01 in0.3 mm
01:21 AM 43.2°F6.2°C 42.3°F5.7°C 97% 6.0 mph SE9.7 kmh SE 11.0 mph17.7 kmh 29.72 in1006.4 mb 0.01 in0.3 mm 0.00 in/hr0.0 mm/hr 0.01 in0.3 mm
01:20 AM 43.2°F6.2°C 42.3°F5.7°C 97% 6.0 mph SE9.7 kmh SE 11.0 mph17.7 kmh 29.72 in1006.4 mb 0.01 in0.3 mm 0.00 in/hr0.0 mm/hr 0.01 in0.3 mm
01:19 AM 43.2°F6.2°C 42.3°F5.7°C 97% 6.0 mph SE9.7 kmh SE 11.0 mph17.7 kmh 29.72 in1006.4 mb 0.01 in0.3 mm 0.00 in/hr0.0 mm/hr 0.01 in0.3 mm
01:18 AM 43.2°F6.2°C 42.3°F5.7°C 97% 6.0 mph SE9.7 kmh SE 11.0 mph17.7 kmh 29.72 in1006.4 mb 0.01 in0.3 mm 0.00 in/hr0.0 mm/hr 0.01 in0.3 mm
01:17 AM 43.2°F6.2°C 42.1°F5.6°C 96% 6.0 mph SE9.7 kmh SE 11.0 mph17.7 kmh 29.72 in1006.4 mb 0.01 in0.3 mm 0.00 in/hr0.0 mm/hr 0.01 in0.3 mm
01:16 AM 43.2°F6.2°C 42.1°F5.6°C 96% 6.0 mph SE9.7 kmh SE 11.0 mph17.7 kmh 29.72 in1006.4 mb 0.01 in0.3 mm 0.00 in/hr0.0 mm/hr 0.01 in0.3 mm
01:15 AM 43.2°F6.2°C 42.1°F5.6°C 96% 6.0 mph SE9.7 kmh SE 11.0 mph17.7 kmh 29.73 in1006.8 mb 0.01 in0.3 mm 0.00 in/hr0.0 mm/hr 0.01 in0.3 mm
01:14 AM 43.2°F6.2°C 42.1°F5.6°C 96% 6.0 mph SE9.7 kmh SE 11.0 mph17.7 kmh 29.72 in1006.4 mb 0.01 in0.3 mm 0.00 in/hr0.0 mm/hr 0.01 in0.3 mm
01:13 AM 43.2°F6.2°C 42.1°F5.6°C 96% 6.0 mph SE9.7 kmh SE 11.0 mph17.7 kmh 29.73 in1006.8 mb 0.01 in0.3 mm 0.00 in/hr0.0 mm/hr 0.01 in0.3 mm
01:12 AM 43.2°F6.2°C 42.1°F5.6°C 96% 6.0 mph SE9.7 kmh SE 11.0 mph17.7 kmh 29.73 in1006.8 mb 0.01 in0.3 mm 0.00 in/hr0.0 mm/hr 0.01 in0.3 mm
01:11 AM 43.2°F6.2°C 42.1°F5.6°C 96% 6.0 mph SE9.7 kmh SE 11.0 mph17.7 kmh 29.73 in1006.8 mb 0.01 in0.3 mm 0.00 in/hr0.0 mm/hr 0.01 in0.3 mm
01:10 AM 43.2°F6.2°C 42.1°F5.6°C 96% 6.0 mph SE9.7 kmh SE 11.0 mph17.7 kmh 29.73 in1006.8 mb 0.01 in0.3 mm 0.00 in/hr0.0 mm/hr 0.01 in0.3 mm
01:09 AM 43.2°F6.2°C 42.1°F5.6°C 96% 6.0 mph SE9.7 kmh SE 11.0 mph17.7 kmh 29.73 in1006.8 mb 0.01 in0.3 mm 0.00 in/hr0.0 mm/hr 0.01 in0.3 mm
01:08 AM 43.2°F6.2°C 42.1°F5.6°C 96% 6.0 mph SE9.7 kmh SE 11.0 mph17.7 kmh 29.73 in1006.8 mb 0.01 in0.3 mm 0.00 in/hr0.0 mm/hr 0.01 in0.3 mm
01:07 AM 43.2°F6.2°C 42.1°F5.6°C 96% 6.0 mph SE9.7 kmh SE 11.0 mph17.7 kmh 29.73 in1006.8 mb 0.01 in0.3 mm 0.00 in/hr0.0 mm/hr 0.01 in0.3 mm
01:06 AM 43.2°F6.2°C 42.1°F5.6°C 96% 6.0 mph SE9.7 kmh SE 11.0 mph17.7 kmh 29.73 in1006.8 mb 0.01 in0.3 mm 0.00 in/hr0.0 mm/hr 0.01 in0.3 mm
01:05 AM 43.2°F6.2°C 42.1°F5.6°C 96% 6.0 mph SE9.7 kmh SE 11.0 mph17.7 kmh 29.73 in1006.8 mb 0.01 in0.3 mm 0.00 in/hr0.0 mm/hr 0.01 in0.3 mm
01:04 AM 43.2°F6.2°C 42.1°F5.6°C 96% 6.0 mph SE9.7 kmh SE 11.0 mph17.7 kmh 29.73 in1006.8 mb 0.01 in0.3 mm 0.00 in/hr0.0 mm/hr 0.01 in0.3 mm
01:03 AM 43.2°F6.2°C 42.1°F5.6°C 96% 7.0 mph SE11.3 kmh SE 11.0 mph17.7 kmh 29.73 in1006.8 mb 0.01 in0.3 mm 0.00 in/hr0.0 mm/hr 0.01 in0.3 mm
01:02 AM 43.2°F6.2°C 42.1°F5.6°C 96% 7.0 mph SE11.3 kmh SE 13.0 mph20.9 kmh 29.73 in1006.8 mb 0.01 in0.3 mm 0.00 in/hr0.0 mm/hr 0.01 in0.3 mm
01:01 AM 43.2°F6.2°C 42.1°F5.6°C 96% 7.0 mph SE11.3 kmh SE 13.0 mph20.9 kmh 29.73 in1006.8 mb 0.01 in0.3 mm 0.00 in/hr0.0 mm/hr 0.01 in0.3 mm
01:00 AM 43.2°F6.2°C 42.1°F5.6°C 96% 7.0 mph SE11.3 kmh SE 13.0 mph20.9 kmh 29.73 in1006.8 mb 0.01 in0.3 mm 0.00 in/hr0.0 mm/hr 0.01 in0.3 mm
12:59 AM 43.2°F6.2°C 42.1°F5.6°C 96% 6.0 mph SE9.7 kmh SE 13.0 mph20.9 kmh 29.72 in1006.4 mb 0.01 in0.3 mm 0.00 in/hr0.0 mm/hr 0.01 in0.3 mm
12:58 AM 43.2°F6.2°C 42.1°F5.6°C 96% 6.0 mph SE9.7 kmh SE 13.0 mph20.9 kmh 29.73 in1006.8 mb 0.01 in0.3 mm 0.00 in/hr0.0 mm/hr 0.01 in0.3 mm
12:57 AM 43.2°F6.2°C 42.1°F5.6°C 96% 6.0 mph SE9.7 kmh SE 13.0 mph20.9 kmh 29.72 in1006.4 mb 0.01 in0.3 mm 0.00 in/hr0.0 mm/hr 0.01 in0.3 mm
12:56 AM 43.2°F6.2°C 42.1°F5.6°C 96% 6.0 mph SE9.7 kmh SE 13.0 mph20.9 kmh 29.72 in1006.4 mb 0.01 in0.3 mm 0.00 in/hr0.0 mm/hr 0.01 in0.3 mm
12:55 AM 43.2°F6.2°C 42.1°F5.6°C 96% 6.0 mph SE9.7 kmh SE 13.0 mph20.9 kmh 29.72 in1006.4 mb 0.01 in0.3 mm 0.00 in/hr0.0 mm/hr 0.01 in0.3 mm
12:54 AM 43.2°F6.2°C 42.1°F5.6°C 96% 6.0 mph SE9.7 kmh SE 13.0 mph20.9 kmh 29.72 in1006.4 mb 0.01 in0.3 mm 0.00 in/hr0.0 mm/hr 0.01 in0.3 mm
12:53 AM 43.2°F6.2°C 42.1°F5.6°C 96% 5.0 mph SE8.0 kmh SE 13.0 mph20.9 kmh 29.72 in1006.4 mb 0.01 in0.3 mm 0.00 in/hr0.0 mm/hr 0.01 in0.3 mm
12:52 AM 43.2°F6.2°C 42.1°F5.6°C 96% 5.0 mph SE8.0 kmh SE 12.0 mph19.3 kmh 29.72 in1006.4 mb 0.01 in0.3 mm 0.00 in/hr0.0 mm/hr 0.01 in0.3 mm
12:51 AM 43.2°F6.2°C 42.1°F5.6°C 96% 5.0 mph SE8.0 kmh SE 13.0 mph20.9 kmh 29.72 in1006.4 mb 0.01 in0.3 mm 0.00 in/hr0.0 mm/hr 0.01 in0.3 mm
12:50 AM 43.2°F6.2°C 42.1°F5.6°C 96% 6.0 mph SE9.7 kmh SE 15.0 mph24.1 kmh 29.72 in1006.4 mb 0.01 in0.3 mm 0.00 in/hr0.0 mm/hr 0.01 in0.3 mm
12:49 AM 43.2°F6.2°C 42.1°F5.6°C 96% 6.0 mph SE9.7 kmh SE 15.0 mph24.1 kmh 29.72 in1006.4 mb 0.01 in0.3 mm 0.00 in/hr0.0 mm/hr 0.01 in0.3 mm
12:48 AM 43.2°F6.2°C 42.1°F5.6°C 96% 6.0 mph SE9.7 kmh SE 15.0 mph24.1 kmh 29.72 in1006.4 mb 0.01 in0.3 mm 0.60 in/hr15.2 mm/hr 0.01 in0.3 mm
12:47 AM 43.2°F6.2°C 42.1°F5.6°C 96% 6.0 mph SE9.7 kmh SE 15.0 mph24.1 kmh 29.72 in1006.4 mb 0.00 in0.0 mm 0.00 in/hr0.0 mm/hr 0.00 in0.0 mm
12:46 AM 43.2°F6.2°C 42.1°F5.6°C 96% 6.0 mph SE9.7 kmh SE 15.0 mph24.1 kmh 29.72 in1006.4 mb 0.00 in0.0 mm 0.00 in/hr0.0 mm/hr 0.00 in0.0 mm
12:45 AM 43.2°F6.2°C 42.1°F5.6°C 96% 7.0 mph SE11.3 kmh SE 15.0 mph24.1 kmh 29.72 in1006.4 mb 0.00 in0.0 mm 0.00 in/hr0.0 mm/hr 0.00 in0.0 mm
12:44 AM 43.2°F6.2°C 42.1°F5.6°C 96% 6.0 mph SE9.7 kmh SE 15.0 mph24.1 kmh 29.72 in1006.4 mb 0.00 in0.0 mm 0.00 in/hr0.0 mm/hr 0.00 in0.0 mm
12:43 AM 43.2°F6.2°C 42.1°F5.6°C 96% 6.0 mph SE9.7 kmh SE 15.0 mph24.1 kmh 29.72 in1006.4 mb 0.00 in0.0 mm 0.00 in/hr0.0 mm/hr 0.00 in0.0 mm
12:42 AM 43.2°F6.2°C 42.1°F5.6°C 96% 6.0 mph SE9.7 kmh SE 15.0 mph24.1 kmh 29.72 in1006.4 mb 0.00 in0.0 mm 0.00 in/hr0.0 mm/hr 0.00 in0.0 mm
12:41 AM 43.2°F6.2°C 42.1°F5.6°C 96% 6.0 mph SE9.7 kmh SE 15.0 mph24.1 kmh 29.72 in1006.4 mb 0.00 in0.0 mm 0.00 in/hr0.0 mm/hr 0.00 in0.0 mm
12:40 AM 43.2°F6.2°C 42.1°F5.6°C 96% 5.0 mph SE8.0 kmh SE 13.0 mph20.9 kmh 29.72 in1006.4 mb 0.00 in0.0 mm 0.00 in/hr0.0 mm/hr 0.00 in0.0 mm
12:39 AM 43.2°F6.2°C 42.1°F5.6°C 96% 6.0 mph SE9.7 kmh SE 11.0 mph17.7 kmh 29.72 in1006.4 mb 0.00 in0.0 mm 0.00 in/hr0.0 mm/hr 0.00 in0.0 mm
12:38 AM 43.2°F6.2°C 42.1°F5.6°C 96% 6.0 mph SE9.7 kmh SE 11.0 mph17.7 kmh 29.72 in1006.4 mb 0.00 in0.0 mm 0.00 in/hr0.0 mm/hr 0.00 in0.0 mm
12:37 AM 43.3°F6.3°C 42.3°F5.7°C 96% 6.0 mph SE9.7 kmh SE 11.0 mph17.7 kmh 29.72 in1006.4 mb 0.00 in0.0 mm 0.00 in/hr0.0 mm/hr 0.00 in0.0 mm
12:36 AM 43.3°F6.3°C 42.3°F5.7°C 96% 6.0 mph SE9.7 kmh SE 11.0 mph17.7 kmh 29.72 in1006.4 mb 0.00 in0.0 mm 0.00 in/hr0.0 mm/hr 0.00 in0.0 mm
12:35 AM 43.3°F6.3°C 42.3°F5.7°C 96% 6.0 mph SE9.7 kmh SE 11.0 mph17.7 kmh 29.72 in1006.4 mb 0.00 in0.0 mm 0.00 in/hr0.0 mm/hr 0.00 in0.0 mm
12:34 AM 43.3°F6.3°C 42.3°F5.7°C 96% 6.0 mph SE9.7 kmh SE 11.0 mph17.7 kmh 29.72 in1006.4 mb 0.00 in0.0 mm 0.00 in/hr0.0 mm/hr 0.00 in0.0 mm
12:33 AM 43.3°F6.3°C 42.3°F5.7°C 96% 6.0 mph SE9.7 kmh SE 12.0 mph19.3 kmh 29.72 in1006.4 mb 0.00 in0.0 mm 0.00 in/hr0.0 mm/hr 0.00 in0.0 mm
12:32 AM 43.3°F6.3°C 42.3°F5.7°C 96% 7.0 mph SE11.3 kmh SE 13.0 mph20.9 kmh 29.72 in1006.4 mb 0.00 in0.0 mm 0.00 in/hr0.0 mm/hr 0.00 in0.0 mm
12:31 AM 43.3°F6.3°C 42.3°F5.7°C 96% 7.0 mph SE11.3 kmh SE 13.0 mph20.9 kmh 29.72 in1006.4 mb 0.00 in0.0 mm 0.00 in/hr0.0 mm/hr 0.00 in0.0 mm
12:30 AM 43.3°F6.3°C 42.3°F5.7°C 96% 7.0 mph SE11.3 kmh SE 13.0 mph20.9 kmh 29.72 in1006.4 mb 0.00 in0.0 mm 0.00 in/hr0.0 mm/hr 0.00 in0.0 mm
12:29 AM 43.3°F6.3°C 42.3°F5.7°C 96% 7.0 mph SE11.3 kmh SE 13.0 mph20.9 kmh 29.72 in1006.4 mb 0.00 in0.0 mm 0.00 in/hr0.0 mm/hr 0.00 in0.0 mm
12:28 AM 43.3°F6.3°C 42.3°F5.7°C 96% 7.0 mph SE11.3 kmh SE 13.0 mph20.9 kmh 29.72 in1006.4 mb 0.00 in0.0 mm 0.00 in/hr0.0 mm/hr 0.00 in0.0 mm
12:27 AM 43.3°F6.3°C 42.3°F5.7°C 96% 8.0 mph SE12.9 kmh SE 13.0 mph20.9 kmh 29.72 in1006.4 mb 0.00 in0.0 mm 0.00 in/hr0.0 mm/hr 0.00 in0.0 mm
12:26 AM 43.3°F6.3°C 42.3°F5.7°C 96% 8.0 mph SE12.9 kmh SE 13.0 mph20.9 kmh 29.72 in1006.4 mb 0.00 in0.0 mm 0.00 in/hr0.0 mm/hr 0.00 in0.0 mm
12:25 AM 43.3°F6.3°C 42.3°F5.7°C 96% 8.0 mph SE12.9 kmh SE 13.0 mph20.9 kmh 29.72 in1006.4 mb 0.00 in0.0 mm 0.00 in/hr0.0 mm/hr 0.00 in0.0 mm
12:24 AM 43.3°F6.3°C 42.3°F5.7°C 96% 8.0 mph SE12.9 kmh SE 13.0 mph20.9 kmh 29.72 in1006.4 mb 0.00 in0.0 mm 0.00 in/hr0.0 mm/hr 0.00 in0.0 mm
12:23 AM 43.3°F6.3°C 42.3°F5.7°C 96% 7.0 mph ESE11.3 kmh ESE 13.0 mph20.9 kmh 29.72 in1006.4 mb 0.00 in0.0 mm 0.00 in/hr0.0 mm/hr 0.00 in0.0 mm
12:22 AM 43.3°F6.3°C 42.3°F5.7°C 96% 7.0 mph SE11.3 kmh SE 13.0 mph20.9 kmh 29.72 in1006.4 mb 0.00 in0.0 mm 0.00 in/hr0.0 mm/hr 0.00 in0.0 mm
12:21 AM 43.3°F6.3°C 42.3°F5.7°C 96% 7.0 mph SE11.3 kmh SE 13.0 mph20.9 kmh 29.72 in1006.4 mb 0.00 in0.0 mm 0.00 in/hr0.0 mm/hr 0.00 in0.0 mm
12:20 AM 43.3°F6.3°C 42.3°F5.7°C 96% 7.0 mph SE11.3 kmh SE 13.0 mph20.9 kmh 29.72 in1006.4 mb 0.00 in0.0 mm 0.00 in/hr0.0 mm/hr 0.00 in0.0 mm
12:19 AM 43.3°F6.3°C 42.3°F5.7°C 96% 7.0 mph SE11.3 kmh SE 13.0 mph20.9 kmh 29.72 in1006.4 mb 0.00 in0.0 mm 0.00 in/hr0.0 mm/hr 0.00 in0.0 mm
12:18 AM 43.3°F6.3°C 42.3°F5.7°C 96% 7.0 mph SE11.3 kmh SE 14.0 mph22.5 kmh 29.72 in1006.4 mb 0.00 in0.0 mm 0.00 in/hr0.0 mm/hr 0.00 in0.0 mm
12:17 AM 43.3°F6.3°C 42.3°F5.7°C 96% 7.0 mph SE11.3 kmh SE 14.0 mph22.5 kmh 29.72 in1006.4 mb 0.00 in0.0 mm 0.00 in/hr0.0 mm/hr 0.00 in0.0 mm
12:16 AM 43.3°F6.3°C 42.3°F5.7°C 96% 7.0 mph SE11.3 kmh SE 14.0 mph22.5 kmh 29.72 in1006.4 mb 0.00 in0.0 mm 0.00 in/hr0.0 mm/hr 0.00 in0.0 mm
12:15 AM 43.3°F6.3°C 42.3°F5.7°C 96% 7.0 mph SE11.3 kmh SE 14.0 mph22.5 kmh 29.72 in1006.4 mb 0.00 in0.0 mm 0.00 in/hr0.0 mm/hr 0.00 in0.0 mm
12:14 AM 43.3°F6.3°C 42.3°F5.7°C 96% 6.0 mph SE9.7 kmh SE 14.0 mph22.5 kmh 29.72 in1006.4 mb 0.00 in0.0 mm 0.00 in/hr0.0 mm/hr 0.00 in0.0 mm
12:13 AM 43.3°F6.3°C 42.3°F5.7°C 96% 6.0 mph SE9.7 kmh SE 14.0 mph22.5 kmh 29.72 in1006.4 mb 0.00 in0.0 mm 0.00 in/hr0.0 mm/hr 0.00 in0.0 mm
12:12 AM 43.3°F6.3°C 42.3°F5.7°C 96% 6.0 mph SE9.7 kmh SE 14.0 mph22.5 kmh 29.72 in1006.4 mb 0.00 in0.0 mm 0.00 in/hr0.0 mm/hr 0.00 in0.0 mm
12:11 AM 43.3°F6.3°C 42.3°F5.7°C 96% 6.0 mph SE9.7 kmh SE 14.0 mph22.5 kmh 29.72 in1006.4 mb 0.00 in0.0 mm 0.00 in/hr0.0 mm/hr 0.00 in0.0 mm
12:10 AM 43.3°F6.3°C 42.3°F5.7°C 96% 6.0 mph SE9.7 kmh SE 14.0 mph22.5 kmh 29.72 in1006.4 mb 0.00 in0.0 mm 0.00 in/hr0.0 mm/hr 0.00 in0.0 mm
12:09 AM 43.3°F6.3°C 42.3°F5.7°C 96% 6.0 mph SE9.7 kmh SE 14.0 mph22.5 kmh 29.72 in1006.4 mb 0.00 in0.0 mm 0.00 in/hr0.0 mm/hr 0.00 in0.0 mm
12:08 AM 43.3°F6.3°C 42.3°F5.7°C 96% 6.0 mph SE9.7 kmh SE 12.0 mph19.3 kmh 29.72 in1006.4 mb 0.00 in0.0 mm 0.00 in/hr0.0 mm/hr 0.00 in0.0 mm
12:07 AM 43.3°F6.3°C 42.3°F5.7°C 96% 6.0 mph ESE9.7 kmh ESE 12.0 mph19.3 kmh 29.72 in1006.4 mb 0.00 in0.0 mm 0.00 in/hr0.0 mm/hr 0.00 in0.0 mm
12:06 AM 43.3°F6.3°C 42.3°F5.7°C 96% 6.0 mph ESE9.7 kmh ESE 11.0 mph17.7 kmh 29.72 in1006.4 mb 0.00 in0.0 mm 0.00 in/hr0.0 mm/hr 0.00 in0.0 mm
12:05 AM 43.3°F6.3°C 42.3°F5.7°C 96% 6.0 mph ESE9.7 kmh ESE 11.0 mph17.7 kmh 29.72 in1006.4 mb 0.00 in0.0 mm 0.00 in/hr0.0 mm/hr 0.00 in0.0 mm
12:04 AM 43.3°F6.3°C 42.3°F5.7°C 96% 6.0 mph SE9.7 kmh SE 11.0 mph17.7 kmh 29.72 in1006.4 mb 0.00 in0.0 mm 0.00 in/hr0.0 mm/hr 0.00 in0.0 mm
12:03 AM 43.3°F6.3°C 42.3°F5.7°C 96% 6.0 mph ESE9.7 kmh ESE 11.0 mph17.7 kmh 29.72 in1006.4 mb 0.00 in0.0 mm 0.00 in/hr0.0 mm/hr 0.00 in0.0 mm
12:02 AM 43.3°F6.3°C 42.3°F5.7°C 96% 6.0 mph ESE9.7 kmh ESE 11.0 mph17.7 kmh 29.72 in1006.4 mb 0.00 in0.0 mm 0.00 in/hr0.0 mm/hr 0.00 in0.0 mm
12:01 AM 43.3°F6.3°C 42.3°F5.7°C 96% 6.0 mph ESE9.7 kmh ESE 11.0 mph17.7 kmh 29.72 in1006.4 mb 0.00 in0.0 mm 0.00 in/hr0.0 mm/hr 0.00 in0.0 mm